Time;durP1;ratioP1;P1;durP2;ratioP2;P2;SDS_P1;SDS_P2;PMS_P1;PMS_P2;Temp;Humidity;BMP_temperature;BMP_pressure;BME280_temperature;BME280_humidity;BME280_pressure;Samples;Min_cycle;Max_cycle;Signal;HPM_P1;HPM_P2
2022/07/13 00:00:14;;;;;;;17.70;15.77;;;;;;;;;;5019713;28;20103;-76
2022/07/13 00:02:40;;;;;;;17.52;15.90;;;;;;;;;;5013893;28;20501;-76
2022/07/13 00:05:06;;;;;;;18.35;16.50;;;;;;;;;;5028762;28;20081;-76
2022/07/13 00:07:36;;;;;;;17.15;15.57;;;;;;;;;;5023514;28;20063;-75
2022/07/13 00:10:02;;;;;;;17.23;15.73;;;;;;;;;;5021138;28;20086;-76
2022/07/13 00:12:28;;;;;;;17.40;15.55;;;;;;;;;;5029201;28;20083;-76
2022/07/13 00:14:54;;;;;;;16.60;15.10;;;;;;;;;;5025620;28;20052;-76
2022/07/13 00:17:20;;;;;;;17.73;16.10;;;;;;;;;;5043816;28;20128;-76
2022/07/13 00:19:47;;;;;;;17.05;15.25;;;;;;;;;;5026535;28;20080;-76
2022/07/13 00:22:13;;;;;;;17.05;15.55;;;;;;;;;;5034135;28;20111;-75
2022/07/13 00:24:39;;;;;;;17.73;15.95;;;;;;;;;;5020991;28;20045;-75
2022/07/13 00:27:05;;;;;;;16.50;14.82;;;;;;;;;;5038657;28;20539;-76
2022/07/13 00:29:31;;;;;;;17.52;15.93;;;;;;;;;;5031553;28;20099;-75
2022/07/13 00:31:57;;;;;;;16.60;14.90;;;;;;;;;;5034216;28;20404;-76
2022/07/13 00:34:23;;;;;;;17.42;15.75;;;;;;;;;;5026449;28;20505;-75
2022/07/13 00:36:49;;;;;;;16.40;15.00;;;;;;;;;;5026556;28;20485;-76
2022/07/13 00:39:15;;;;;;;16.50;15.00;;;;;;;;;;5037985;28;20069;-76
2022/07/13 00:41:45;;;;;;;16.92;15.45;;;;;;;;;;5035438;28;20115;-76
2022/07/13 00:44:12;;;;;;;15.93;14.30;;;;;;;;;;5026833;28;20178;-76
2022/07/13 00:46:39;;;;;;;16.10;14.60;;;;;;;;;;5034197;28;20049;-76
2022/07/13 00:49:05;;;;;;;15.05;13.55;;;;;;;;;;5020257;28;20565;-75
2022/07/13 00:51:31;;;;;;;15.90;14.35;;;;;;;;;;5033826;28;20513;-75
2022/07/13 00:53:58;;;;;;;14.10;12.80;;;;;;;;;;5056254;28;20049;-76
2022/07/13 00:56:25;;;;;;;15.77;14.20;;;;;;;;;;5013637;28;20397;-76
2022/07/13 00:58:54;;;;;;;15.80;14.38;;;;;;;;;;5015178;28;20132;-76
2022/07/13 01:01:20;;;;;;;13.13;11.90;;;;;;;;;;5012077;28;20042;-76
2022/07/13 01:03:46;;;;;;;13.15;11.77;;;;;;;;;;5014322;28;20038;-76
2022/07/13 01:06:12;;;;;;;14.25;12.90;;;;;;;;;;5021602;28;20132;-75
2022/07/13 01:08:38;;;;;;;12.80;11.65;;;;;;;;;;5037430;28;20045;-76
2022/07/13 01:11:05;;;;;;;14.07;12.63;;;;;;;;;;5025787;28;20491;-76
2022/07/13 01:13:31;;;;;;;13.90;12.57;;;;;;;;;;5028017;28;20103;-76
2022/07/13 01:15:57;;;;;;;15.18;13.73;;;;;;;;;;5027731;28;20037;-76
2022/07/13 01:18:24;;;;;;;14.90;13.60;;;;;;;;;;5036526;28;20053;-76
2022/07/13 01:20:51;;;;;;;14.07;12.77;;;;;;;;;;5037716;28;20052;-75
2022/07/13 01:23:18;;;;;;;13.85;12.60;;;;;;;;;;5032086;28;20488;-75
2022/07/13 01:25:44;;;;;;;12.93;11.63;;;;;;;;;;5036271;28;20041;-76
2022/07/13 01:28:13;;;;;;;12.68;11.52;;;;;;;;;;5036217;28;20054;-76
2022/07/13 01:30:39;;;;;;;13.13;10.80;;;;;;;;;;5035506;28;20057;-76
2022/07/13 01:33:05;;;;;;;9.65;8.65;;;;;;;;;;5032153;28;20485;-76
2022/07/13 01:35:31;;;;;;;9.57;8.35;;;;;;;;;;5035206;28;20037;-75
2022/07/13 01:37:58;;;;;;;8.30;7.50;;;;;;;;;;5028830;28;20037;-76
2022/07/13 01:40:24;;;;;;;8.05;6.97;;;;;;;;;;5045161;28;20063;-76
2022/07/13 01:42:53;;;;;;;7.63;6.22;;;;;;;;;;5039158;28;20051;-76
2022/07/13 01:45:22;;;;;;;6.53;5.93;;;;;;;;;;5025345;28;20564;-76
2022/07/13 01:47:49;;;;;;;4.85;4.45;;;;;;;;;;5022201;28;20045;-76
2022/07/13 01:50:16;;;;;;;6.60;5.05;;;;;;;;;;5022201;28;20046;-76
2022/07/13 01:52:42;;;;;;;4.90;4.30;;;;;;;;;;5019957;28;20046;-76
2022/07/13 01:55:09;;;;;;;4.50;4.05;;;;;;;;;;5036061;28;20049;-75
2022/07/13 01:57:36;;;;;;;5.35;4.38;;;;;;;;;;5033496;28;20149;-76
2022/07/13 02:00:04;;;;;;;4.82;4.00;;;;;;;;;;5037527;28;20124;-76
2022/07/13 02:02:30;;;;;;;5.15;4.28;;;;;;;;;;5027617;28;20757;-76
2022/07/13 02:04:57;;;;;;;4.47;4.18;;;;;;;;;;5025201;28;20045;-76
2022/07/13 02:07:23;;;;;;;6.53;4.68;;;;;;;;;;5062080;28;20473;-76
2022/07/13 02:09:49;;;;;;;5.25;4.75;;;;;;;;;;5030376;28;20037;-76
2022/07/13 02:12:15;;;;;;;5.07;4.57;;;;;;;;;;5030068;28;20049;-76
2022/07/13 02:14:41;;;;;;;4.88;4.35;;;;;;;;;;5025206;28;20486;-76
2022/07/13 02:17:07;;;;;;;4.75;4.22;;;;;;;;;;5033280;28;20037;-75
2022/07/13 02:19:33;;;;;;;4.82;4.28;;;;;;;;;;5029481;28;20049;-76
2022/07/13 02:21:59;;;;;;;4.63;4.20;;;;;;;;;;5023476;28;20044;-75
2022/07/13 02:24:25;;;;;;;4.85;4.45;;;;;;;;;;5032051;28;20034;-76
2022/07/13 02:26:51;;;;;;;6.13;4.40;;;;;;;;;;5060596;28;20888;-76
2022/07/13 02:29:17;;;;;;;4.88;4.30;;;;;;;;;;5036621;28;20049;-76
2022/07/13 02:31:43;;;;;;;5.20;4.50;;;;;;;;;;5037201;28;20046;-76
2022/07/13 02:34:09;;;;;;;6.43;4.35;;;;;;;;;;5041627;28;20048;-76
2022/07/13 02:36:35;;;;;;;4.40;4.00;;;;;;;;;;5027322;28;20123;-76
2022/07/13 02:39:01;;;;;;;5.32;3.97;;;;;;;;;;5032422;28;20382;-76
2022/07/13 02:41:27;;;;;;;6.93;4.28;;;;;;;;;;5045339;28;20140;-76
2022/07/13 02:43:53;;;;;;;4.55;3.70;;;;;;;;;;5036372;28;20047;-76
2022/07/13 02:46:19;;;;;;;4.13;3.67;;;;;;;;;;5036680;28;20059;-76
2022/07/13 02:48:45;;;;;;;4.10;3.70;;;;;;;;;;5030627;28;20049;-76
2022/07/13 02:51:11;;;;;;;4.07;3.78;;;;;;;;;;5027158;28;20057;-76
2022/07/13 02:53:37;;;;;;;5.63;4.10;;;;;;;;;;5028690;28;20042;-75
2022/07/13 02:56:06;;;;;;;4.43;4.13;;;;;;;;;;5034974;28;20515;-76
2022/07/13 02:58:32;;;;;;;5.82;3.83;;;;;;;;;;5029356;28;20047;-76
2022/07/13 03:00:58;;;;;;;4.10;3.70;;;;;;;;;;5025634;28;20459;-76
2022/07/13 03:03:24;;;;;;;4.43;3.90;;;;;;;;;;5025126;28;20042;-76
2022/07/13 03:05:50;;;;;;;4.28;3.88;;;;;;;;;;5040978;28;20041;-76
2022/07/13 03:08:16;;;;;;;4.13;3.67;;;;;;;;;;5026918;28;20133;-76
2022/07/13 03:10:42;;;;;;;4.55;4.00;;;;;;;;;;5028388;28;20073;-76
2022/07/13 03:13:08;;;;;;;6.32;4.38;;;;;;;;;;5025720;28;20487;-76
2022/07/13 03:15:34;;;;;;;4.50;4.10;;;;;;;;;;5036476;28;20042;-76
2022/07/13 03:18:00;;;;;;;4.65;4.07;;;;;;;;;;5029243;28;20115;-76
2022/07/13 03:20:26;;;;;;;4.75;3.80;;;;;;;;;;5028489;28;20096;-76
2022/07/13 03:22:52;;;;;;;5.90;4.15;;;;;;;;;;5041535;28;20049;-76
2022/07/13 03:25:18;;;;;;;5.90;3.90;;;;;;;;;;5034205;28;20103;-76
2022/07/13 03:27:44;;;;;;;4.68;3.70;;;;;;;;;;5037360;28;20381;-76
2022/07/13 03:30:10;;;;;;;5.43;3.70;;;;;;;;;;5029906;28;20053;-75
2022/07/13 03:32:37;;;;;;;5.88;3.85;;;;;;;;;;5020073;28;20147;-76
2022/07/13 03:35:03;;;;;;;4.47;3.83;;;;;;;;;;5021763;28;20183;-76
2022/07/13 03:37:29;;;;;;;4.30;3.90;;;;;;;;;;5028133;28;20524;-76
2022/07/13 03:39:55;;;;;;;6.97;4.43;;;;;;;;;;5022555;28;20046;-76
2022/07/13 03:42:21;;;;;;;4.43;4.03;;;;;;;;;;5032972;28;20037;-76
2022/07/13 03:44:47;;;;;;;6.50;4.22;;;;;;;;;;5039141;28;20132;-76
2022/07/13 03:47:13;;;;;;;5.75;4.28;;;;;;;;;;5021868;28;20044;-76
2022/07/13 03:49:39;;;;;;;4.82;4.43;;;;;;;;;;5024180;28;20041;-76
2022/07/13 03:52:05;;;;;;;6.38;4.55;;;;;;;;;;5032816;28;20404;-76
2022/07/13 03:54:31;;;;;;;6.50;4.72;;;;;;;;;;5019400;28;20046;-76
2022/07/13 03:56:58;;;;;;;4.93;4.40;;;;;;;;;;5033182;28;20451;-76
2022/07/13 03:59:24;;;;;;;6.78;4.35;;;;;;;;;;5020687;28;20095;-76
2022/07/13 04:01:50;;;;;;;7.25;4.70;;;;;;;;;;5028439;28;20053;-76
2022/07/13 04:04:16;;;;;;;5.82;4.53;;;;;;;;;;5035395;28;20056;-76
2022/07/13 04:06:42;;;;;;;5.20;4.40;;;;;;;;;;5033638;28;20037;-76
2022/07/13 04:09:08;;;;;;;6.40;4.72;;;;;;;;;;5035489;28;20056;-76
2022/07/13 04:11:34;;;;;;;7.63;4.90;;;;;;;;;;5034779;28;20042;-76
2022/07/13 04:14:00;;;;;;;6.95;5.13;;;;;;;;;;5029680;28;20099;-76
2022/07/13 04:16:26;;;;;;;8.43;4.93;;;;;;;;;;5028710;28;20451;-76
2022/07/13 04:18:52;;;;;;;5.30;4.80;;;;;;;;;;5018210;28;20551;-76
2022/07/13 04:21:18;;;;;;;6.35;5.43;;;;;;;;;;5024196;28;20049;-76
2022/07/13 04:23:44;;;;;;;5.68;5.18;;;;;;;;;;5045827;28;20053;-76
2022/07/13 04:26:10;;;;;;;5.85;5.00;;;;;;;;;;5045958;28;20562;-76
2022/07/13 04:28:36;;;;;;;6.93;5.60;;;;;;;;;;5039865;28;20045;-76
2022/07/13 04:31:02;;;;;;;7.68;5.60;;;;;;;;;;5029277;28;20077;-76
2022/07/13 04:33:28;;;;;;;6.47;5.47;;;;;;;;;;5032901;28;20087;-76
2022/07/13 04:35:54;;;;;;;6.53;5.38;;;;;;;;;;5030884;28;20061;-76
2022/07/13 04:38:20;;;;;;;6.95;5.53;;;;;;;;;;5026915;28;20072;-76
2022/07/13 04:40:46;;;;;;;6.22;5.22;;;;;;;;;;5035650;28;20045;-76
2022/07/13 04:43:13;;;;;;;5.38;4.88;;;;;;;;;;5029861;28;20080;-76
2022/07/13 04:45:39;;;;;;;6.75;5.25;;;;;;;;;;5030747;28;20044;-76
2022/07/13 04:48:05;;;;;;;5.60;4.95;;;;;;;;;;5030723;28;20041;-76
2022/07/13 04:50:31;;;;;;;5.93;4.85;;;;;;;;;;5026981;28;20091;-76
2022/07/13 04:52:57;;;;;;;5.60;4.97;;;;;;;;;;5021303;28;20045;-75
2022/07/13 04:55:23;;;;;;;6.53;5.10;;;;;;;;;;5034216;28;20045;-75
2022/07/13 04:57:49;;;;;;;5.75;5.10;;;;;;;;;;5040150;28;20080;-76
2022/07/13 05:00:16;;;;;;;7.28;5.25;;;;;;;;;;5017424;28;20052;-76
2022/07/13 05:02:42;;;;;;;7.22;5.30;;;;;;;;;;5021592;28;20046;-76
2022/07/13 05:05:08;;;;;;;6.25;5.20;;;;;;;;;;5023864;28;20132;-75
2022/07/13 05:07:34;;;;;;;7.45;5.32;;;;;;;;;;5032014;28;20615;-76
2022/07/13 05:10:00;;;;;;;9.25;7.63;;;;;;;;;;5025983;28;20041;-76
2022/07/13 05:12:26;;;;;;;9.07;7.40;;;;;;;;;;5034694;28;20073;-76
2022/07/13 05:14:52;;;;;;;6.10;5.32;;;;;;;;;;5022689;28;20041;-76
2022/07/13 05:17:19;;;;;;;10.93;5.60;;;;;;;;;;5034449;28;20041;-76
2022/07/13 05:19:45;;;;;;;10.43;5.88;;;;;;;;;;5028510;28;20041;-76
2022/07/13 05:22:11;;;;;;;6.68;5.72;;;;;;;;;;5037953;28;20045;-76
2022/07/13 05:24:37;;;;;;;8.23;5.70;;;;;;;;;;5029086;28;20045;-76
2022/07/13 05:27:03;;;;;;;10.15;6.30;;;;;;;;;;5024592;28;20456;-76
2022/07/13 05:29:29;;;;;;;7.82;5.70;;;;;;;;;;5032573;28;20049;-76
2022/07/13 05:31:55;;;;;;;8.68;5.95;;;;;;;;;;5031994;28;20053;-76
2022/07/13 05:34:21;;;;;;;8.82;5.72;;;;;;;;;;5025257;28;20501;-76
2022/07/13 05:36:47;;;;;;;11.40;5.15;;;;;;;;;;5035195;28;20045;-76
2022/07/13 05:39:13;;;;;;;8.38;5.10;;;;;;;;;;5031605;28;20045;-76
2022/07/13 05:41:39;;;;;;;8.52;5.60;;;;;;;;;;5032062;28;20037;-76
2022/07/13 05:44:05;;;;;;;8.13;5.32;;;;;;;;;;5033065;28;20037;-76
2022/07/13 05:46:31;;;;;;;11.20;5.78;;;;;;;;;;5028069;28;20045;-76
2022/07/13 05:48:57;;;;;;;9.00;6.03;;;;;;;;;;5021105;28;20041;-76
2022/07/13 05:51:23;;;;;;;7.82;5.72;;;;;;;;;;5030243;28;20049;-76
2022/07/13 05:53:50;;;;;;;7.22;5.43;;;;;;;;;;5033468;28;20136;-75
2022/07/13 05:56:16;;;;;;;8.75;5.72;;;;;;;;;;5030312;28;20443;-76
2022/07/13 05:58:43;;;;;;;10.40;5.68;;;;;;;;;;5030549;28;20045;-76
2022/07/13 06:01:11;;;;;;;6.70;5.30;;;;;;;;;;5015332;28;20875;-76
2022/07/13 06:03:37;;;;;;;6.18;5.60;;;;;;;;;;5020487;28;20042;-76
2022/07/13 06:06:03;;;;;;;7.68;5.57;;;;;;;;;;5025086;28;20038;-75
2022/07/13 06:08:29;;;;;;;7.53;5.43;;;;;;;;;;5033198;28;20444;-76
2022/07/13 06:10:55;;;;;;;8.20;5.43;;;;;;;;;;5032967;28;20440;-76
2022/07/13 06:13:21;;;;;;;6.88;5.20;;;;;;;;;;5024101;28;20049;-76
2022/07/13 06:15:47;;;;;;;9.75;5.63;;;;;;;;;;5034723;28;20383;-77
2022/07/13 06:18:13;;;;;;;9.88;5.53;;;;;;;;;;5028283;28;20037;-76
2022/07/13 06:20:39;;;;;;;10.50;5.32;;;;;;;;;;5031010;28;20049;-76
2022/07/13 06:23:11;;;;;;;8.45;5.90;;;;;;;;;;5031133;28;20041;-75
2022/07/13 06:25:38;;;;;;;7.90;6.00;;;;;;;;;;5029630;28;20071;-76
2022/07/13 06:28:04;;;;;;;7.40;5.95;;;;;;;;;;5059894;28;20046;-76
2022/07/13 06:30:30;;;;;;;8.63;5.45;;;;;;;;;;5033208;28;20073;-76
2022/07/13 06:32:57;;;;;;;9.13;6.00;;;;;;;;;;5033912;28;20052;-76
2022/07/13 06:35:23;;;;;;;9.27;5.95;;;;;;;;;;5023973;28;20101;-76
2022/07/13 06:37:49;;;;;;;7.68;6.05;;;;;;;;;;5029974;28;20485;-76
2022/07/13 06:40:15;;;;;;;8.40;6.05;;;;;;;;;;5029456;28;20528;-76
2022/07/13 06:42:41;;;;;;;9.82;5.68;;;;;;;;;;5030816;28;20044;-75
2022/07/13 06:45:07;;;;;;;9.35;5.65;;;;;;;;;;5032364;28;20041;-76
2022/07/13 06:47:33;;;;;;;7.70;6.03;;;;;;;;;;5050319;28;20122;-76
2022/07/13 06:49:59;;;;;;;8.43;5.95;;;;;;;;;;5033839;28;20080;-76
2022/07/13 06:52:25;;;;;;;8.80;5.93;;;;;;;;;;5040109;28;20138;-75
2022/07/13 06:54:51;;;;;;;8.60;6.30;;;;;;;;;;5038158;28;20522;-75
2022/07/13 06:57:18;;;;;;;6.78;5.90;;;;;;;;;;5030873;28;20050;-75
2022/07/13 06:59:44;;;;;;;10.27;6.50;;;;;;;;;;5039247;28;20046;-75
2022/07/13 07:02:10;;;;;;;10.30;5.82;;;;;;;;;;5030638;28;20107;-75
2022/07/13 07:04:36;;;;;;;8.10;5.88;;;;;;;;;;5017429;28;20563;-75
2022/07/13 07:07:02;;;;;;;9.02;6.18;;;;;;;;;;5030421;28;20080;-75
2022/07/13 07:09:28;;;;;;;8.52;5.78;;;;;;;;;;5050929;28;20065;-76
2022/07/13 07:11:55;;;;;;;10.57;6.18;;;;;;;;;;5048242;28;20043;-76
2022/07/13 07:14:21;;;;;;;11.07;6.55;;;;;;;;;;5034013;28;20060;-76
2022/07/13 07:16:47;;;;;;;8.63;6.22;;;;;;;;;;5039210;28;20401;-75
2022/07/13 07:19:13;;;;;;;9.10;6.07;;;;;;;;;;5033024;28;20128;-76
2022/07/13 07:21:40;;;;;;;9.50;6.38;;;;;;;;;;5041291;28;20041;-75
2022/07/13 07:24:06;;;;;;;8.13;6.30;;;;;;;;;;5046506;28;20406;-75
2022/07/13 07:26:32;;;;;;;9.52;5.90;;;;;;;;;;5039652;28;20041;-76
2022/07/13 07:28:59;;;;;;;7.72;5.80;;;;;;;;;;5041622;28;20041;-76
2022/07/13 07:31:25;;;;;;;7.93;6.22;;;;;;;;;;5048041;28;20505;-75
2022/07/13 07:33:51;;;;;;;7.00;5.68;;;;;;;;;;5043120;28;20049;-76
2022/07/13 07:36:17;;;;;;;7.95;5.63;;;;;;;;;;5032631;28;20594;-76
2022/07/13 07:38:46;;;;;;;10.45;6.10;;;;;;;;;;5039922;28;20045;-76
2022/07/13 07:41:13;;;;;;;8.32;5.75;;;;;;;;;;5030880;28;20057;-75
2022/07/13 07:43:39;;;;;;;7.25;5.80;;;;;;;;;;5036858;28;20064;-76
2022/07/13 07:46:05;;;;;;;6.55;5.57;;;;;;;;;;5034659;28;20076;-75
2022/07/13 07:48:31;;;;;;;9.00;5.90;;;;;;;;;;5052107;28;20036;-76
2022/07/13 07:50:58;;;;;;;6.70;5.95;;;;;;;;;;5031849;28;20551;-76
2022/07/13 07:53:24;;;;;;;6.55;5.85;;;;;;;;;;5035485;28;20324;-75
2022/07/13 07:55:50;;;;;;;6.50;5.72;;;;;;;;;;5049161;28;20135;-75
2022/07/13 07:58:16;;;;;;;8.45;5.70;;;;;;;;;;5035024;28;20053;-76
2022/07/13 08:00:43;;;;;;;7.85;6.18;;;;;;;;;;5040068;28;20506;-76
2022/07/13 08:03:09;;;;;;;9.27;5.60;;;;;;;;;;5062595;28;20071;-76
2022/07/13 08:05:35;;;;;;;6.80;5.45;;;;;;;;;;5041091;28;20049;-76
2022/07/13 08:08:01;;;;;;;6.10;5.50;;;;;;;;;;5031617;28;20052;-77
2022/07/13 08:10:27;;;;;;;10.32;5.45;;;;;;;;;;5021234;28;20057;-75
2022/07/13 08:12:54;;;;;;;7.60;5.53;;;;;;;;;;5029122;28;20041;-75
2022/07/13 08:15:21;;;;;;;7.47;5.60;;;;;;;;;;5032482;28;20548;-75
2022/07/13 08:17:47;;;;;;;7.97;5.32;;;;;;;;;;5026265;28;20045;-76
2022/07/13 08:20:13;;;;;;;6.22;5.63;;;;;;;;;;5028686;28;20127;-75
2022/07/13 08:22:39;;;;;;;7.32;5.63;;;;;;;;;;5037548;28;20041;-75
2022/07/13 08:25:06;;;;;;;6.78;5.57;;;;;;;;;;5029604;28;20080;-75
2022/07/13 08:27:32;;;;;;;11.25;6.03;;;;;;;;;;5045328;28;20048;-77
2022/07/13 08:29:59;;;;;;;6.20;5.60;;;;;;;;;;5023489;28;20053;-76
2022/07/13 08:32:25;;;;;;;9.18;6.15;;;;;;;;;;5021812;28;20073;-76
2022/07/13 08:40:21;;;;;;;8.48;5.25;;;;;;;;;;5023010;28;20060;-75
2022/07/13 08:42:47;;;;;;;7.20;5.50;;;;;;;;;;5013514;28;20490;-76
2022/07/13 08:45:13;;;;;;;6.63;5.55;;;;;;;;;;5024889;28;20465;-76
2022/07/13 08:47:41;;;;;;;6.45;5.60;;;;;;;;;;5027390;28;20066;-77
2022/07/13 08:50:08;;;;;;;8.35;5.68;;;;;;;;;;5018148;28;20042;-76
2022/07/13 08:52:35;;;;;;;7.45;5.55;;;;;;;;;;5024509;28;20053;-76
2022/07/13 08:55:05;;;;;;;5.70;5.10;;;;;;;;;;5017052;28;20053;-76
2022/07/13 08:57:34;;;;;;;6.95;4.90;;;;;;;;;;5028549;28;20049;-76
2022/07/13 09:00:00;;;;;;;7.57;4.72;;;;;;;;;;5028431;28;20057;-76
2022/07/13 09:02:26;;;;;;;5.50;4.78;;;;;;;;;;5017089;28;20053;-76
2022/07/13 09:04:53;;;;;;;7.70;4.60;;;;;;;;;;5029760;28;20069;-76
2022/07/13 09:07:19;;;;;;;6.13;4.75;;;;;;;;;;5025001;28;20057;-76
2022/07/13 09:09:45;;;;;;;6.10;4.82;;;;;;;;;;5033644;28;20041;-77
2022/07/13 09:12:16;;;;;;;6.95;5.30;;;;;;;;;;5018239;28;20056;-77
2022/07/13 09:14:43;;;;;;;5.97;4.68;;;;;;;;;;5028213;28;20049;-77
2022/07/13 09:17:18;;;;;;;6.97;4.75;;;;;;;;;;5026721;28;20393;-77
2022/07/13 09:19:44;;;;;;;7.60;4.55;;;;;;;;;;5023142;28;20052;-77
2022/07/13 09:22:14;;;;;;;7.38;4.70;;;;;;;;;;5026842;28;20053;-76
2022/07/13 09:24:43;;;;;;;5.25;4.68;;;;;;;;;;5026917;28;20435;-77
2022/07/13 09:27:10;;;;;;;5.32;4.82;;;;;;;;;;5022487;28;20056;-77
2022/07/13 09:29:37;;;;;;;5.55;4.90;;;;;;;;;;5019210;28;20090;-77
2022/07/13 09:32:06;;;;;;;5.65;5.10;;;;;;;;;;5025323;28;20080;-76
2022/07/13 09:34:51;;;;;;;5.45;4.95;;;;;;;;;;5025127;28;20045;-76
2022/07/13 09:37:18;;;;;;;6.85;4.97;;;;;;;;;;5019492;28;20060;-76
2022/07/13 09:39:56;;;;;;;6.72;5.28;;;;;;;;;;5026023;28;20041;-77
2022/07/13 09:42:26;;;;;;;6.47;5.22;;;;;;;;;;5024096;28;20049;-76
2022/07/13 09:47:40;;;;;;;5.65;4.72;;;;;;;;;;5031858;28;20132;-76
2022/07/13 09:50:07;;;;;;;6.40;4.88;;;;;;;;;;5030948;28;20041;-76
2022/07/13 09:52:33;;;;;;;5.82;4.85;;;;;;;;;;5021093;28;20037;-76
2022/07/13 09:55:00;;;;;;;7.47;4.78;;;;;;;;;;5023187;28;20100;-77
2022/07/13 09:57:28;;;;;;;5.78;5.05;;;;;;;;;;5025429;28;20079;-76
2022/07/13 09:59:55;;;;;;;6.40;4.65;;;;;;;;;;5026805;28;20049;-76
2022/07/13 10:02:21;;;;;;;4.97;4.40;;;;;;;;;;5028277;28;20041;-77
2022/07/13 10:04:48;;;;;;;6.00;4.43;;;;;;;;;;5027754;28;20461;-77
2022/07/13 10:07:15;;;;;;;5.13;4.10;;;;;;;;;;5020613;28;20073;-77
2022/07/13 10:09:42;;;;;;;6.15;4.55;;;;;;;;;;5022174;28;20041;-76
2022/07/13 10:12:09;;;;;;;6.10;4.38;;;;;;;;;;5029629;28;20101;-77
2022/07/13 10:14:36;;;;;;;4.93;4.07;;;;;;;;;;5045041;28;20083;-77
2022/07/13 10:17:06;;;;;;;5.93;3.83;;;;;;;;;;5031891;28;20053;-77
2022/07/13 10:19:33;;;;;;;5.95;3.95;;;;;;;;;;5020730;28;20085;-77
2022/07/13 10:22:04;;;;;;;5.05;3.88;;;;;;;;;;5033020;28;20053;-77
2022/07/13 10:24:30;;;;;;;4.97;3.95;;;;;;;;;;5036337;28;20045;-77
2022/07/13 10:27:15;;;;;;;4.22;3.50;;;;;;;;;;5032509;28;20135;-76
2022/07/13 10:29:47;;;;;;;5.13;3.45;;;;;;;;;;5051874;28;20095;-76
2022/07/13 10:32:16;;;;;;;4.35;3.35;;;;;;;;;;5032854;28;20510;-76
2022/07/13 10:34:50;;;;;;;5.88;3.50;;;;;;;;;;5024216;28;20041;-76
2022/07/13 10:37:16;;;;;;;4.18;3.28;;;;;;;;;;5021186;28;20515;-76
2022/07/13 10:40:02;;;;;;;6.10;3.70;;;;;;;;;;5025865;28;20040;-76
2022/07/13 10:42:28;;;;;;;4.43;3.28;;;;;;;;;;5031016;28;20461;-75
2022/07/13 10:44:54;;;;;;;4.78;3.33;;;;;;;;;;5057693;28;20045;-76
2022/07/13 10:47:40;;;;;;;6.00;3.55;;;;;;;;;;5039910;28;20052;-75
2022/07/13 10:50:22;;;;;;;4.18;3.50;;;;;;;;;;5055789;28;20503;-75
2022/07/13 10:52:48;;;;;;;3.50;3.20;;;;;;;;;;5024513;28;20034;-75
2022/07/13 10:55:24;;;;;;;3.90;3.05;;;;;;;;;;5021361;28;20049;-75
2022/07/13 10:57:50;;;;;;;3.60;3.00;;;;;;;;;;5024725;28;20050;-75
2022/07/13 11:02:48;;;;;;;3.83;3.40;;;;;;;;;;5023228;28;20050;-75
2022/07/13 11:05:17;;;;;;;4.57;3.25;;;;;;;;;;5024668;28;20050;-75
2022/07/13 11:07:44;;;;;;;4.57;3.08;;;;;;;;;;5030242;28;20091;-75
2022/07/13 11:10:18;;;;;;;3.85;3.50;;;;;;;;;;5029595;28;20061;-76
2022/07/13 11:13:03;;;;;;;6.10;3.47;;;;;;;;;;5039762;28;20052;-75
2022/07/13 11:15:48;;;;;;;4.28;3.38;;;;;;;;;;5030125;28;20405;-76
2022/07/13 11:18:23;;;;;;;3.63;3.15;;;;;;;;;;5031358;28;20075;-76
2022/07/13 11:21:02;;;;;;;6.13;3.50;;;;;;;;;;5027754;28;20045;-75
2022/07/13 11:26:55;;;;;;;4.03;2.97;;;;;;;;;;5020208;28;20053;-75
2022/07/13 11:29:23;;;;;;;5.60;3.40;;;;;;;;;;5025304;28;21711;-75
2022/07/13 11:31:57;;;;;;;5.53;3.08;;;;;;;;;;5028814;28;20107;-76
2022/07/13 11:34:23;;;;;;;5.20;3.03;;;;;;;;;;5025269;28;20056;-75
2022/07/13 11:36:50;;;;;;;7.50;3.75;;;;;;;;;;5020295;28;20034;-75
2022/07/13 11:39:26;;;;;;;8.55;3.55;;;;;;;;;;5026756;28;20045;-76
2022/07/13 11:41:53;;;;;;;5.15;3.33;;;;;;;;;;5046549;28;20042;-75
2022/07/13 11:44:29;;;;;;;5.38;3.22;;;;;;;;;;5023823;28;20048;-75
2022/07/13 11:46:57;;;;;;;6.15;3.38;;;;;;;;;;5033049;28;20049;-75
2022/07/13 11:49:24;;;;;;;7.70;3.28;;;;;;;;;;5025592;28;20049;-75
2022/07/13 11:51:50;;;;;;;4.88;3.45;;;;;;;;;;5026973;28;20047;-76
2022/07/13 11:54:25;;;;;;;6.57;3.70;;;;;;;;;;5037425;28;20067;-78
2022/07/13 11:56:52;;;;;;;4.57;3.33;;;;;;;;;;5042026;28;20107;-75
2022/07/13 11:59:34;;;;;;;6.53;4.05;;;;;;;;;;5036222;28;20117;-76
2022/07/13 12:02:02;;;;;;;6.22;3.60;;;;;;;;;;5022225;28;20046;-76
2022/07/13 12:04:28;;;;;;;6.07;3.20;;;;;;;;;;5028078;28;20096;-75
2022/07/13 12:07:13;;;;;;;6.32;3.60;;;;;;;;;;5024007;28;20477;-76
2022/07/13 12:09:48;;;;;;;6.82;3.15;;;;;;;;;;5026810;28;20517;-77
2022/07/13 12:12:14;;;;;;;3.85;2.63;;;;;;;;;;5058676;28;20077;-76
2022/07/13 12:14:40;;;;;;;10.20;3.30;;;;;;;;;;5027124;28;20045;-76
2022/07/13 12:17:07;;;;;;;5.57;3.15;;;;;;;;;;5025523;28;20152;-76
2022/07/13 12:19:33;;;;;;;6.53;3.00;;;;;;;;;;5027361;28;20041;-77
2022/07/13 12:22:00;;;;;;;7.03;3.20;;;;;;;;;;5029664;28;20576;-76
2022/07/13 12:24:27;;;;;;;7.88;2.90;;;;;;;;;;5017335;28;20052;-76
2022/07/13 12:26:53;;;;;;;4.32;2.70;;;;;;;;;;5028541;28;20385;-76
2022/07/13 12:29:29;;;;;;;5.28;2.78;;;;;;;;;;5027741;28;20052;-77
2022/07/13 12:31:55;;;;;;;7.57;3.00;;;;;;;;;;5030121;28;20037;-76
2022/07/13 12:34:22;;;;;;;7.63;3.05;;;;;;;;;;5026438;28;20055;-77
2022/07/13 12:36:49;;;;;;;7.93;3.00;;;;;;;;;;5019321;28;20113;-76
2022/07/13 12:39:15;;;;;;;6.47;2.85;;;;;;;;;;5026246;28;20048;-76
2022/07/13 12:41:55;;;;;;;6.13;2.90;;;;;;;;;;5025330;28;20038;-76
2022/07/13 12:44:27;;;;;;;4.70;2.50;;;;;;;;;;5020023;28;20394;-76
2022/07/13 12:46:54;;;;;;;7.00;2.77;;;;;;;;;;5025594;28;20115;-76
2022/07/13 12:49:35;;;;;;;6.15;2.55;;;;;;;;;;5027069;28;20049;-76
2022/07/13 12:52:05;;;;;;;4.72;2.60;;;;;;;;;;5026024;28;20049;-76
2022/07/13 12:54:40;;;;;;;6.10;2.63;;;;;;;;;;5023366;28;20051;-76
2022/07/13 12:57:10;;;;;;;4.97;2.30;;;;;;;;;;5018586;28;20046;-75
2022/07/13 12:59:37;;;;;;;6.13;2.63;;;;;;;;;;5022169;28;20041;-76
2022/07/13 13:02:03;;;;;;;5.72;2.58;;;;;;;;;;5027801;28;20042;-76
2022/07/13 13:04:29;;;;;;;6.47;2.60;;;;;;;;;;5023281;28;20051;-75
2022/07/13 13:06:55;;;;;;;7.30;2.70;;;;;;;;;;5025990;28;20038;-75
2022/07/13 13:09:24;;;;;;;5.38;2.28;;;;;;;;;;5052886;28;20049;-76
2022/07/13 13:11:52;;;;;;;8.27;2.50;;;;;;;;;;5024113;28;20049;-76
2022/07/13 13:14:18;;;;;;;5.13;2.20;;;;;;;;;;5020998;28;20056;-75
2022/07/13 13:16:45;;;;;;;5.65;2.42;;;;;;;;;;5022552;28;20477;-76
2022/07/13 13:19:11;;;;;;;5.82;2.75;;;;;;;;;;5020784;28;20053;-76
2022/07/13 13:21:38;;;;;;;6.40;2.55;;;;;;;;;;5027517;28;20045;-76
2022/07/13 13:24:09;;;;;;;5.85;2.20;;;;;;;;;;5024119;28;20049;-76
2022/07/13 13:26:35;;;;;;;4.57;2.17;;;;;;;;;;5024960;28;20113;-75
2022/07/13 13:31:47;;;;;;;7.78;2.85;;;;;;;;;;5027695;28;20062;-75
2022/07/13 13:34:13;;;;;;;6.05;2.53;;;;;;;;;;5017177;28;20057;-76
2022/07/13 13:36:40;;;;;;;7.28;2.60;;;;;;;;;;5061023;28;20136;-76
2022/07/13 13:39:06;;;;;;;6.20;2.40;;;;;;;;;;5027903;28;20041;-76
2022/07/13 13:41:32;;;;;;;5.45;2.70;;;;;;;;;;5026525;28;20073;-76
2022/07/13 13:43:58;;;;;;;8.27;2.45;;;;;;;;;;5029649;28;20049;-76
2022/07/13 13:46:24;;;;;;;8.55;3.08;;;;;;;;;;5023461;28;20052;-77
2022/07/13 13:48:50;;;;;;;6.85;2.97;;;;;;;;;;5027798;28;20050;-76
2022/07/13 13:51:16;;;;;;;7.22;2.22;;;;;;;;;;5027705;28;20131;-76
2022/07/13 13:53:43;;;;;;;5.53;2.30;;;;;;;;;;5020882;28;20045;-76
2022/07/13 13:56:09;;;;;;;6.13;2.53;;;;;;;;;;5020898;28;20537;-76
2022/07/13 13:58:34;;;;;;;9.45;2.70;;;;;;;;;;5020233;28;20133;-76
2022/07/13 14:01:01;;;;;;;7.25;2.60;;;;;;;;;;5027639;28;20064;-76
2022/07/13 14:03:27;;;;;;;7.95;3.22;;;;;;;;;;5023030;28;20421;-76
2022/07/13 14:05:54;;;;;;;6.63;2.80;;;;;;;;;;5022737;28;20041;-76
2022/07/13 14:08:20;;;;;;;5.88;2.55;;;;;;;;;;5027653;28;20056;-76
2022/07/13 14:10:47;;;;;;;10.23;2.63;;;;;;;;;;5025380;28;20050;-77
2022/07/13 14:13:13;;;;;;;6.85;2.50;;;;;;;;;;5024314;28;20408;-76
2022/07/13 14:15:39;;;;;;;7.72;3.10;;;;;;;;;;5058086;28;20098;-77
2022/07/13 14:18:05;;;;;;;7.95;2.65;;;;;;;;;;5022797;28;20129;-76
2022/07/13 14:20:31;;;;;;;6.28;2.75;;;;;;;;;;5029397;28;20521;-76
2022/07/13 14:22:57;;;;;;;9.73;2.83;;;;;;;;;;5025620;28;20095;-76
2022/07/13 14:25:23;;;;;;;14.30;3.38;;;;;;;;;;5031573;28;20493;-76
2022/07/13 14:27:50;;;;;;;8.68;3.13;;;;;;;;;;5027221;28;20069;-76
2022/07/13 14:30:16;;;;;;;8.40;2.63;;;;;;;;;;5025532;28;20115;-77
2022/07/13 14:32:42;;;;;;;7.22;2.70;;;;;;;;;;5058029;28;20140;-77
2022/07/13 14:35:09;;;;;;;5.90;2.72;;;;;;;;;;5030566;28;20045;-76
2022/07/13 14:37:37;;;;;;;9.10;2.80;;;;;;;;;;5017681;28;20037;-77
2022/07/13 14:40:04;;;;;;;6.60;2.63;;;;;;;;;;5024277;28;20049;-77
2022/07/13 14:42:30;;;;;;;6.40;2.75;;;;;;;;;;5024728;28;20045;-76
2022/07/13 14:44:56;;;;;;;6.63;2.92;;;;;;;;;;5031720;28;20037;-77
2022/07/13 14:47:22;;;;;;;7.75;2.75;;;;;;;;;;5019624;28;20046;-76
2022/07/13 14:49:48;;;;;;;5.72;2.70;;;;;;;;;;5025402;28;20052;-77
2022/07/13 14:52:14;;;;;;;6.25;2.50;;;;;;;;;;5031738;28;20153;-76
2022/07/13 14:54:40;;;;;;;6.43;2.60;;;;;;;;;;5028800;28;20045;-78
2022/07/13 14:57:06;;;;;;;7.90;2.97;;;;;;;;;;5023959;28;20041;-77